sensor_id;sensor_type;location;lat;lon;timestamp;P1;durP1;ratioP1;P2;durP2;ratioP2
20597;SDS011;10457;48.770;11.446;2022-07-30T00:01:12;8.88;;;7.22;;
20597;SDS011;10457;48.770;11.446;2022-07-30T00:06:34;9.40;;;7.97;;
20597;SDS011;10457;48.770;11.446;2022-07-30T00:11:57;12.50;;;8.18;;
20597;SDS011;10457;48.770;11.446;2022-07-30T00:17:19;10.07;;;8.80;;
20597;SDS011;10457;48.770;11.446;2022-07-30T00:22:40;7.88;;;7.05;;
20597;SDS011;10457;48.770;11.446;2022-07-30T00:28:03;10.52;;;9.02;;
20597;SDS011;10457;48.770;11.446;2022-07-30T00:33:25;12.52;;;8.77;;
20597;SDS011;10457;48.770;11.446;2022-07-30T00:38:47;9.25;;;8.35;;
20597;SDS011;10457;48.770;11.446;2022-07-30T00:44:10;12.48;;;8.68;;
20597;SDS011;10457;48.770;11.446;2022-07-30T00:49:32;12.98;;;9.02;;
20597;SDS011;10457;48.770;11.446;2022-07-30T00:54:53;8.93;;;7.70;;
20597;SDS011;10457;48.770;11.446;2022-07-30T01:00:16;10.80;;;8.15;;
20597;SDS011;10457;48.770;11.446;2022-07-30T01:05:39;9.32;;;8.45;;
20597;SDS011;10457;48.770;11.446;2022-07-30T01:11:01;9.35;;;7.82;;
20597;SDS011;10457;48.770;11.446;2022-07-30T01:16:24;10.20;;;8.32;;
20597;SDS011;10457;48.770;11.446;2022-07-30T01:21:47;10.15;;;8.93;;
20597;SDS011;10457;48.770;11.446;2022-07-30T01:27:17;11.40;;;10.10;;
20597;SDS011;10457;48.770;11.446;2022-07-30T01:32:41;10.32;;;9.27;;
20597;SDS011;10457;48.770;11.446;2022-07-30T01:38:04;10.68;;;8.45;;
20597;SDS011;10457;48.770;11.446;2022-07-30T01:43:28;13.05;;;9.32;;
20597;SDS011;10457;48.770;11.446;2022-07-30T01:48:52;9.35;;;8.45;;
20597;SDS011;10457;48.770;11.446;2022-07-30T01:54:14;18.98;;;8.88;;
20597;SDS011;10457;48.770;11.446;2022-07-30T01:59:40;9.85;;;8.90;;
20597;SDS011;10457;48.770;11.446;2022-07-30T02:05:06;10.23;;;8.43;;
20597;SDS011;10457;48.770;11.446;2022-07-30T02:10:30;10.88;;;9.45;;
20597;SDS011;10457;48.770;11.446;2022-07-30T02:15:58;10.55;;;9.45;;
20597;SDS011;10457;48.770;11.446;2022-07-30T02:21:33;15.45;;;11.52;;
20597;SDS011;10457;48.770;11.446;2022-07-30T02:27:00;15.82;;;11.45;;
20597;SDS011;10457;48.770;11.446;2022-07-30T02:32:25;14.52;;;12.38;;
20597;SDS011;10457;48.770;11.446;2022-07-30T02:37:50;14.23;;;12.73;;
20597;SDS011;10457;48.770;11.446;2022-07-30T02:43:15;15.00;;;11.38;;
20597;SDS011;10457;48.770;11.446;2022-07-30T02:48:40;16.63;;;13.55;;
20597;SDS011;10457;48.770;11.446;2022-07-30T02:54:04;16.35;;;13.98;;
20597;SDS011;10457;48.770;11.446;2022-07-30T02:59:27;13.98;;;12.52;;
20597;SDS011;10457;48.770;11.446;2022-07-30T03:04:52;13.02;;;11.70;;
20597;SDS011;10457;48.770;11.446;2022-07-30T03:10:15;14.73;;;13.23;;
20597;SDS011;10457;48.770;11.446;2022-07-30T03:15:39;18.55;;;14.48;;
20597;SDS011;10457;48.770;11.446;2022-07-30T03:21:09;19.75;;;15.45;;
20597;SDS011;10457;48.770;11.446;2022-07-30T03:26:32;19.63;;;15.57;;
20597;SDS011;10457;48.770;11.446;2022-07-30T03:31:56;19.92;;;15.98;;
20597;SDS011;10457;48.770;11.446;2022-07-30T03:37:21;18.25;;;15.15;;
20597;SDS011;10457;48.770;11.446;2022-07-30T03:42:45;21.23;;;17.55;;
20597;SDS011;10457;48.770;11.446;2022-07-30T03:48:11;19.20;;;17.17;;
20597;SDS011;10457;48.770;11.446;2022-07-30T03:53:40;22.17;;;17.45;;
20597;SDS011;10457;48.770;11.446;2022-07-30T03:59:28;19.63;;;16.67;;
20597;SDS011;10457;48.770;11.446;2022-07-30T04:04:50;18.23;;;16.33;;
20597;SDS011;10457;48.770;11.446;2022-07-30T04:10:13;20.17;;;17.33;;
20597;SDS011;10457;48.770;11.446;2022-07-30T04:15:50;17.50;;;15.63;;
20597;SDS011;10457;48.770;11.446;2022-07-30T04:21:20;20.02;;;16.98;;
20597;SDS011;10457;48.770;11.446;2022-07-30T04:26:46;18.85;;;16.88;;
20597;SDS011;10457;48.770;11.446;2022-07-30T04:32:09;18.85;;;16.85;;
20597;SDS011;10457;48.770;11.446;2022-07-30T04:37:50;22.25;;;16.88;;
20597;SDS011;10457;48.770;11.446;2022-07-30T04:43:13;15.95;;;14.35;;
20597;SDS011;10457;48.770;11.446;2022-07-30T04:48:36;21.90;;;17.33;;
20597;SDS011;10457;48.770;11.446;2022-07-30T04:54:06;18.15;;;15.90;;
20597;SDS011;10457;48.770;11.446;2022-07-30T04:59:32;18.30;;;15.35;;
20597;SDS011;10457;48.770;11.446;2022-07-30T05:04:56;20.58;;;17.40;;
20597;SDS011;10457;48.770;11.446;2022-07-30T05:10:19;21.65;;;17.92;;
20597;SDS011;10457;48.770;11.446;2022-07-30T05:15:42;23.63;;;19.00;;
20597;SDS011;10457;48.770;11.446;2022-07-30T05:21:05;22.55;;;18.10;;
20597;SDS011;10457;48.770;11.446;2022-07-30T05:26:30;23.00;;;17.50;;
20597;SDS011;10457;48.770;11.446;2022-07-30T05:31:53;21.77;;;17.30;;
20597;SDS011;10457;48.770;11.446;2022-07-30T05:37:15;21.27;;;16.55;;
20597;SDS011;10457;48.770;11.446;2022-07-30T05:42:36;22.83;;;15.82;;
20597;SDS011;10457;48.770;11.446;2022-07-30T05:47:59;25.73;;;16.35;;
20597;SDS011;10457;48.770;11.446;2022-07-30T05:53:21;19.05;;;16.15;;
20597;SDS011;10457;48.770;11.446;2022-07-30T05:59:01;20.27;;;16.40;;
20597;SDS011;10457;48.770;11.446;2022-07-30T06:04:44;18.90;;;16.15;;
20597;SDS011;10457;48.770;11.446;2022-07-30T06:10:06;20.52;;;14.85;;
20597;SDS011;10457;48.770;11.446;2022-07-30T06:15:30;19.90;;;14.38;;
20597;SDS011;10457;48.770;11.446;2022-07-30T06:20:54;15.88;;;13.60;;
20597;SDS011;10457;48.770;11.446;2022-07-30T06:26:18;14.13;;;12.32;;
20597;SDS011;10457;48.770;11.446;2022-07-30T06:31:40;18.13;;;13.35;;
20597;SDS011;10457;48.770;11.446;2022-07-30T06:37:06;14.70;;;11.63;;
20597;SDS011;10457;48.770;11.446;2022-07-30T06:42:28;13.48;;;12.07;;
20597;SDS011;10457;48.770;11.446;2022-07-30T06:48:08;14.35;;;11.02;;
20597;SDS011;10457;48.770;11.446;2022-07-30T06:53:31;11.38;;;10.18;;
20597;SDS011;10457;48.770;11.446;2022-07-30T06:59:04;12.43;;;9.80;;
20597;SDS011;10457;48.770;11.446;2022-07-30T07:04:44;11.07;;;8.23;;
20597;SDS011;10457;48.770;11.446;2022-07-30T07:10:07;12.15;;;9.13;;
20597;SDS011;10457;48.770;11.446;2022-07-30T07:15:44;13.95;;;8.48;;
20597;SDS011;10457;48.770;11.446;2022-07-30T07:21:11;7.03;;;6.32;;
20597;SDS011;10457;48.770;11.446;2022-07-30T07:26:34;7.70;;;6.32;;
20597;SDS011;10457;48.770;11.446;2022-07-30T07:31:55;7.55;;;6.85;;
20597;SDS011;10457;48.770;11.446;2022-07-30T07:37:17;6.55;;;5.82;;
20597;SDS011;10457;48.770;11.446;2022-07-30T07:42:41;8.48;;;5.22;;
20597;SDS011;10457;48.770;11.446;2022-07-30T07:48:03;6.80;;;5.47;;
20597;SDS011;10457;48.770;11.446;2022-07-30T07:53:45;7.38;;;5.68;;
20597;SDS011;10457;48.770;11.446;2022-07-30T07:59:08;5.60;;;5.10;;
20597;SDS011;10457;48.770;11.446;2022-07-30T08:04:29;7.03;;;6.32;;
20597;SDS011;10457;48.770;11.446;2022-07-30T08:10:02;6.43;;;5.75;;
20597;SDS011;10457;48.770;11.446;2022-07-30T08:15:32;6.28;;;5.68;;
20597;SDS011;10457;48.770;11.446;2022-07-30T08:21:12;5.88;;;5.15;;
20597;SDS011;10457;48.770;11.446;2022-07-30T08:26:34;10.88;;;6.05;;
20597;SDS011;10457;48.770;11.446;2022-07-30T08:31:58;4.97;;;4.57;;
20597;SDS011;10457;48.770;11.446;2022-07-30T08:37:20;5.15;;;3.80;;
20597;SDS011;10457;48.770;11.446;2022-07-30T08:42:41;4.78;;;4.35;;
20597;SDS011;10457;48.770;11.446;2022-07-30T08:48:06;5.07;;;4.68;;
20597;SDS011;10457;48.770;11.446;2022-07-30T08:53:37;4.68;;;4.10;;
20597;SDS011;10457;48.770;11.446;2022-07-30T08:58:59;4.38;;;4.05;;
20597;SDS011;10457;48.770;11.446;2022-07-30T09:04:22;4.88;;;4.13;;
20597;SDS011;10457;48.770;11.446;2022-07-30T09:09:45;5.78;;;4.53;;
20597;SDS011;10457;48.770;11.446;2022-07-30T09:15:08;5.53;;;5.00;;
20597;SDS011;10457;48.770;11.446;2022-07-30T09:20:33;10.82;;;5.70;;
20597;SDS011;10457;48.770;11.446;2022-07-30T09:25:59;4.97;;;4.53;;
20597;SDS011;10457;48.770;11.446;2022-07-30T09:31:32;5.38;;;4.90;;
20597;SDS011;10457;48.770;11.446;2022-07-30T09:37:34;5.28;;;4.57;;
20597;SDS011;10457;48.770;11.446;2022-07-30T09:43:28;4.53;;;4.07;;
20597;SDS011;10457;48.770;11.446;2022-07-30T09:49:12;4.65;;;3.92;;
20597;SDS011;10457;48.770;11.446;2022-07-30T09:54:46;6.05;;;5.50;;
20597;SDS011;10457;48.770;11.446;2022-07-30T10:00:16;6.50;;;4.60;;
20597;SDS011;10457;48.770;11.446;2022-07-30T10:05:50;6.82;;;4.32;;
20597;SDS011;10457;48.770;11.446;2022-07-30T10:11:15;4.10;;;3.03;;
20597;SDS011;10457;48.770;11.446;2022-07-30T10:16:42;4.50;;;3.40;;
20597;SDS011;10457;48.770;11.446;2022-07-30T10:22:03;4.03;;;2.53;;
20597;SDS011;10457;48.770;11.446;2022-07-30T10:27:47;6.53;;;2.65;;
20597;SDS011;10457;48.770;11.446;2022-07-30T10:33:28;4.97;;;3.15;;
20597;SDS011;10457;48.770;11.446;2022-07-30T10:38:50;3.65;;;2.90;;
20597;SDS011;10457;48.770;11.446;2022-07-30T10:50:30;3.45;;;2.30;;
20597;SDS011;10457;48.770;11.446;2022-07-30T10:56:01;2.38;;;2.17;;
20597;SDS011;10457;48.770;11.446;2022-07-30T11:07:29;2.42;;;2.20;;
20597;SDS011;10457;48.770;11.446;2022-07-30T11:12:51;3.72;;;2.30;;
20597;SDS011;10457;48.770;11.446;2022-07-30T11:18:16;2.10;;;2.00;;
20597;SDS011;10457;48.770;11.446;2022-07-30T11:23:38;3.97;;;1.88;;
20597;SDS011;10457;48.770;11.446;2022-07-30T11:29:01;1.88;;;1.58;;
20597;SDS011;10457;48.770;11.446;2022-07-30T11:34:27;2.00;;;1.67;;
20597;SDS011;10457;48.770;11.446;2022-07-30T11:40:05;1.60;;;1.50;;
20597;SDS011;10457;48.770;11.446;2022-07-30T11:45:31;4.45;;;1.85;;
20597;SDS011;10457;48.770;11.446;2022-07-30T11:50:54;1.75;;;1.65;;
20597;SDS011;10457;48.770;11.446;2022-07-30T11:56:16;1.92;;;1.70;;
20597;SDS011;10457;48.770;11.446;2022-07-30T12:01:38;2.33;;;1.75;;
20597;SDS011;10457;48.770;11.446;2022-07-30T12:07:01;1.73;;;1.63;;
20597;SDS011;10457;48.770;11.446;2022-07-30T12:12:23;3.33;;;1.80;;
20597;SDS011;10457;48.770;11.446;2022-07-30T12:17:45;3.83;;;2.20;;
20597;SDS011;10457;48.770;11.446;2022-07-30T12:23:12;2.85;;;2.42;;
20597;SDS011;10457;48.770;11.446;2022-07-30T12:28:34;2.13;;;1.95;;
20597;SDS011;10457;48.770;11.446;2022-07-30T12:33:56;3.08;;;1.70;;
20597;SDS011;10457;48.770;11.446;2022-07-30T12:39:21;1.70;;;1.60;;
20597;SDS011;10457;48.770;11.446;2022-07-30T12:44:45;9.05;;;2.00;;
20597;SDS011;10457;48.770;11.446;2022-07-30T12:50:14;4.43;;;2.40;;
20597;SDS011;10457;48.770;11.446;2022-07-30T12:55:38;2.92;;;1.60;;
20597;SDS011;10457;48.770;11.446;2022-07-30T13:01:00;4.97;;;2.05;;
20597;SDS011;10457;48.770;11.446;2022-07-30T13:06:21;1.95;;;1.80;;
20597;SDS011;10457;48.770;11.446;2022-07-30T13:11:44;4.20;;;3.15;;
20597;SDS011;10457;48.770;11.446;2022-07-30T13:17:06;2.08;;;1.75;;
20597;SDS011;10457;48.770;11.446;2022-07-30T13:22:29;3.42;;;2.30;;
20597;SDS011;10457;48.770;11.446;2022-07-30T13:27:52;3.45;;;1.95;;
20597;SDS011;10457;48.770;11.446;2022-07-30T13:33:13;3.75;;;2.35;;
20597;SDS011;10457;48.770;11.446;2022-07-30T13:38:35;2.13;;;1.92;;
20597;SDS011;10457;48.770;11.446;2022-07-30T13:43:58;5.10;;;2.00;;
20597;SDS011;10457;48.770;11.446;2022-07-30T13:49:20;2.30;;;2.10;;
20597;SDS011;10457;48.770;11.446;2022-07-30T13:54:41;2.00;;;1.90;;
20597;SDS011;10457;48.770;11.446;2022-07-30T14:00:06;2.10;;;1.90;;
20597;SDS011;10457;48.770;11.446;2022-07-30T14:05:29;4.38;;;2.05;;
20597;SDS011;10457;48.770;11.446;2022-07-30T14:10:51;5.20;;;2.58;;
20597;SDS011;10457;48.770;11.446;2022-07-30T14:16:14;3.47;;;2.00;;
20597;SDS011;10457;48.770;11.446;2022-07-30T14:21:38;2.22;;;1.90;;
20597;SDS011;10457;48.770;11.446;2022-07-30T14:27:00;2.50;;;2.20;;
20597;SDS011;10457;48.770;11.446;2022-07-30T14:32:23;5.07;;;2.45;;
20597;SDS011;10457;48.770;11.446;2022-07-30T14:37:45;5.30;;;3.17;;
20597;SDS011;10457;48.770;11.446;2022-07-30T14:43:06;3.42;;;2.42;;
20597;SDS011;10457;48.770;11.446;2022-07-30T14:48:29;3.10;;;2.85;;
20597;SDS011;10457;48.770;11.446;2022-07-30T14:53:51;3.10;;;2.35;;
20597;SDS011;10457;48.770;11.446;2022-07-30T14:59:12;4.90;;;4.23;;
20597;SDS011;10457;48.770;11.446;2022-07-30T15:04:36;5.80;;;3.75;;
20597;SDS011;10457;48.770;11.446;2022-07-30T15:09:57;3.95;;;3.58;;
20597;SDS011;10457;48.770;11.446;2022-07-30T15:15:19;3.38;;;2.30;;
20597;SDS011;10457;48.770;11.446;2022-07-30T15:20:42;3.67;;;2.88;;
20597;SDS011;10457;48.770;11.446;2022-07-30T15:26:04;3.33;;;2.70;;
20597;SDS011;10457;48.770;11.446;2022-07-30T15:31:26;4.05;;;3.72;;
20597;SDS011;10457;48.770;11.446;2022-07-30T15:36:48;2.58;;;2.17;;
20597;SDS011;10457;48.770;11.446;2022-07-30T15:42:10;3.67;;;2.00;;
20597;SDS011;10457;48.770;11.446;2022-07-30T15:47:32;4.28;;;2.35;;
20597;SDS011;10457;48.770;11.446;2022-07-30T15:52:55;2.15;;;2.05;;
20597;SDS011;10457;48.770;11.446;2022-07-30T15:58:16;3.03;;;2.50;;
20597;SDS011;10457;48.770;11.446;2022-07-30T16:03:37;2.75;;;1.95;;
20597;SDS011;10457;48.770;11.446;2022-07-30T16:09:01;3.40;;;2.33;;
20597;SDS011;10457;48.770;11.446;2022-07-30T16:14:24;2.80;;;1.92;;
20597;SDS011;10457;48.770;11.446;2022-07-30T16:19:45;1.77;;;1.67;;
20597;SDS011;10457;48.770;11.446;2022-07-30T16:25:08;2.78;;;2.40;;
20597;SDS011;10457;48.770;11.446;2022-07-30T16:30:30;3.75;;;2.40;;
20597;SDS011;10457;48.770;11.446;2022-07-30T16:35:52;2.88;;;2.20;;
20597;SDS011;10457;48.770;11.446;2022-07-30T16:41:15;4.82;;;2.60;;
20597;SDS011;10457;48.770;11.446;2022-07-30T16:46:36;4.97;;;1.88;;
20597;SDS011;10457;48.770;11.446;2022-07-30T16:51:58;4.28;;;2.08;;
20597;SDS011;10457;48.770;11.446;2022-07-30T16:57:21;3.17;;;2.25;;
20597;SDS011;10457;48.770;11.446;2022-07-30T17:02:42;3.42;;;2.08;;
20597;SDS011;10457;48.770;11.446;2022-07-30T17:08:04;4.35;;;2.60;;
20597;SDS011;10457;48.770;11.446;2022-07-30T17:13:28;18.90;;;4.10;;
20597;SDS011;10457;48.770;11.446;2022-07-30T17:18:50;6.55;;;2.55;;
20597;SDS011;10457;48.770;11.446;2022-07-30T17:24:12;2.88;;;2.53;;
20597;SDS011;10457;48.770;11.446;2022-07-30T17:29:34;2.67;;;2.45;;
20597;SDS011;10457;48.770;11.446;2022-07-30T17:34:57;2.60;;;1.88;;
20597;SDS011;10457;48.770;11.446;2022-07-30T17:40:19;3.05;;;2.67;;
20597;SDS011;10457;48.770;11.446;2022-07-30T17:45:43;3.50;;;2.40;;
20597;SDS011;10457;48.770;11.446;2022-07-30T17:51:04;2.08;;;1.88;;
20597;SDS011;10457;48.770;11.446;2022-07-30T17:56:26;2.20;;;2.00;;
20597;SDS011;10457;48.770;11.446;2022-07-30T18:01:49;2.28;;;2.08;;
20597;SDS011;10457;48.770;11.446;2022-07-30T18:07:10;2.45;;;2.25;;
20597;SDS011;10457;48.770;11.446;2022-07-30T18:12:32;4.00;;;2.88;;
20597;SDS011;10457;48.770;11.446;2022-07-30T18:17:55;8.18;;;3.30;;
20597;SDS011;10457;48.770;11.446;2022-07-30T18:23:17;4.18;;;3.45;;
20597;SDS011;10457;48.770;11.446;2022-07-30T18:28:38;3.20;;;2.97;;
20597;SDS011;10457;48.770;11.446;2022-07-30T18:34:01;3.70;;;3.33;;
20597;SDS011;10457;48.770;11.446;2022-07-30T18:39:23;3.88;;;3.42;;
20597;SDS011;10457;48.770;11.446;2022-07-30T18:44:45;6.18;;;4.07;;
20597;SDS011;10457;48.770;11.446;2022-07-30T18:50:08;5.13;;;3.28;;
20597;SDS011;10457;48.770;11.446;2022-07-30T18:55:31;3.78;;;3.22;;
20597;SDS011;10457;48.770;11.446;2022-07-30T19:00:53;5.30;;;3.58;;
20597;SDS011;10457;48.770;11.446;2022-07-30T19:06:16;6.28;;;4.32;;
20597;SDS011;10457;48.770;11.446;2022-07-30T19:11:37;6.22;;;3.50;;
20597;SDS011;10457;48.770;11.446;2022-07-30T19:17:00;6.20;;;3.92;;
20597;SDS011;10457;48.770;11.446;2022-07-30T19:22:23;5.60;;;3.75;;
20597;SDS011;10457;48.770;11.446;2022-07-30T19:27:45;4.47;;;4.07;;
20597;SDS011;10457;48.770;11.446;2022-07-30T19:33:07;4.28;;;3.53;;
20597;SDS011;10457;48.770;11.446;2022-07-30T19:38:32;3.78;;;3.47;;
20597;SDS011;10457;48.770;11.446;2022-07-30T19:43:56;5.05;;;3.97;;
20597;SDS011;10457;48.770;11.446;2022-07-30T19:49:18;6.55;;;3.78;;
20597;SDS011;10457;48.770;11.446;2022-07-30T19:54:41;4.50;;;3.85;;
20597;SDS011;10457;48.770;11.446;2022-07-30T20:00:03;4.95;;;4.28;;
20597;SDS011;10457;48.770;11.446;2022-07-30T20:05:31;4.57;;;4.15;;
20597;SDS011;10457;48.770;11.446;2022-07-30T20:10:54;3.75;;;3.33;;
20597;SDS011;10457;48.770;11.446;2022-07-30T20:16:17;8.23;;;4.63;;
20597;SDS011;10457;48.770;11.446;2022-07-30T20:21:39;7.13;;;4.65;;
20597;SDS011;10457;48.770;11.446;2022-07-30T20:27:02;6.18;;;4.05;;
20597;SDS011;10457;48.770;11.446;2022-07-30T20:32:24;4.22;;;3.83;;
20597;SDS011;10457;48.770;11.446;2022-07-30T20:37:45;4.63;;;3.90;;
20597;SDS011;10457;48.770;11.446;2022-07-30T20:43:10;5.47;;;4.22;;
20597;SDS011;10457;48.770;11.446;2022-07-30T20:48:31;5.70;;;4.55;;
20597;SDS011;10457;48.770;11.446;2022-07-30T20:53:53;4.38;;;3.97;;
20597;SDS011;10457;48.770;11.446;2022-07-30T20:59:16;5.53;;;3.85;;
20597;SDS011;10457;48.770;11.446;2022-07-30T21:04:38;6.47;;;4.63;;
20597;SDS011;10457;48.770;11.446;2022-07-30T21:09:59;5.90;;;4.40;;
20597;SDS011;10457;48.770;11.446;2022-07-30T21:15:22;10.18;;;8.13;;
20597;SDS011;10457;48.770;11.446;2022-07-30T21:20:44;11.43;;;8.93;;
20597;SDS011;10457;48.770;11.446;2022-07-30T21:26:05;12.13;;;10.35;;
20597;SDS011;10457;48.770;11.446;2022-07-30T21:31:28;20.23;;;11.15;;
20597;SDS011;10457;48.770;11.446;2022-07-30T21:36:50;13.93;;;11.48;;
20597;SDS011;10457;48.770;11.446;2022-07-30T21:42:11;9.10;;;7.82;;
20597;SDS011;10457;48.770;11.446;2022-07-30T21:47:34;9.40;;;6.80;;
20597;SDS011;10457;48.770;11.446;2022-07-30T21:52:57;7.93;;;6.82;;
20597;SDS011;10457;48.770;11.446;2022-07-30T21:58:19;7.93;;;6.32;;
20597;SDS011;10457;48.770;11.446;2022-07-30T22:03:42;8.15;;;6.40;;
20597;SDS011;10457;48.770;11.446;2022-07-30T22:09:04;6.82;;;5.35;;
20597;SDS011;10457;48.770;11.446;2022-07-30T22:14:29;7.07;;;5.40;;
20597;SDS011;10457;48.770;11.446;2022-07-30T22:19:52;8.43;;;6.07;;
20597;SDS011;10457;48.770;11.446;2022-07-30T22:25:14;7.68;;;5.90;;
20597;SDS011;10457;48.770;11.446;2022-07-30T22:30:35;6.80;;;6.10;;
20597;SDS011;10457;48.770;11.446;2022-07-30T22:35:58;7.03;;;5.68;;
20597;SDS011;10457;48.770;11.446;2022-07-30T22:41:19;6.38;;;5.72;;
20597;SDS011;10457;48.770;11.446;2022-07-30T22:46:41;7.47;;;6.45;;
20597;SDS011;10457;48.770;11.446;2022-07-30T22:52:04;6.95;;;6.25;;
20597;SDS011;10457;48.770;11.446;2022-07-30T22:57:26;9.85;;;6.25;;
20597;SDS011;10457;48.770;11.446;2022-07-30T23:02:47;8.05;;;6.15;;
20597;SDS011;10457;48.770;11.446;2022-07-30T23:08:11;10.45;;;6.93;;
20597;SDS011;10457;48.770;11.446;2022-07-30T23:13:32;8.38;;;6.20;;
20597;SDS011;10457;48.770;11.446;2022-07-30T23:18:57;8.15;;;6.65;;
20597;SDS011;10457;48.770;11.446;2022-07-30T23:24:20;9.55;;;6.18;;
20597;SDS011;10457;48.770;11.446;2022-07-30T23:29:41;6.20;;;5.55;;
20597;SDS011;10457;48.770;11.446;2022-07-30T23:35:03;6.68;;;5.80;;
20597;SDS011;10457;48.770;11.446;2022-07-30T23:40:27;8.07;;;7.03;;
20597;SDS011;10457;48.770;11.446;2022-07-30T23:45:48;6.93;;;6.03;;
20597;SDS011;10457;48.770;11.446;2022-07-30T23:51:10;8.50;;;6.00;;
20597;SDS011;10457;48.770;11.446;2022-07-30T23:56:33;6.60;;;5.85;;
